Latest Weather Observations for Moree

IDN60801

Issued at 4:05 pm EST Sunday 31 August 2014 (issued every 30 minutes, with the page automatically refreshed every 10 minutes)

About weather observations | Map of weather stations | Latest weather observations for NSW | Other Formats
Station Details ID: 053115 Name: MOREE AERO Lat: -29.49 Lon: 149.85 Height: 213.0 m
Data from the previous 72 hours. | See also: Recent months at Moree
Date/Time
EST
Temp
°C
App
Temp
°C
Dew
Point
Rel
Hum
%
Delta-T
°C
Wind Press
QNH
hPa
Press
MSL
hPa
Rain
since 9 am
mm
Dir
 
Spd
km/h
Gust
km/h
Spd
kts
Gust
kts
31/04:00pm 22.7 18.0 3.1 27 9.5 SSW 17 26 9 14 1016.4 - 0.0
31/03:30pm 23.0 18.3 3.3 27 9.6 SSW 17 30 9 16 1016.4 - 0.0
31/03:00pm 23.0 19.1 3.3 27 9.6 SW 13 19 7 10 1016.6 1016.7 0.0
31/02:30pm 22.9 19.1 4.1 29 9.3 SSW 13 26 7 14 1016.7 - 0.0
31/02:00pm 22.8 18.2 3.6 28 9.4 SSW 17 26 9 14 1016.9 - 0.0
31/01:30pm 22.3 18.3 4.9 32 8.7 WSW 15 37 8 20 1017.5 - 0.0
31/01:00pm 21.9 18.2 4.5 32 8.6 W 13 24 7 13 1017.8 - 0.0
31/12:30pm 21.5 18.0 5.6 35 8.0 WSW 13 22 7 12 1018.3 - 0.0
31/12:00pm 21.5 18.5 5.9 36 7.9 S 11 19 6 10 1018.7 1018.7 0.0
31/11:30am 20.5 18.4 6.0 38 7.3 NNW 6 17 3 9 1019.1 - 0.0
31/11:00am 20.5 19.1 7.1 42 6.9 N 4 11 2 6 1019.4 - 0.0
31/10:30am 19.4 17.9 7.0 44 6.3 ENE 4 11 2 6 1019.9 - 0.0
31/10:00am 18.5 16.6 7.6 49 5.6 SE 7 13 4 7 1020.2 - 0.0
31/09:30am 17.5 15.3 7.7 52 5.0 ESE 9 13 5 7 1020.3 - 0.0
31/09:00am 16.1 13.9 7.8 58 4.2 SSE 9 13 5 7 1020.3 1020.3 0.0
31/08:30am 14.6 12.4 8.0 64 3.3 SE 9 11 5 6 1020.5 - 0.0
31/08:00am 12.3 10.4 7.6 73 2.3 SE 7 9 4 5 1020.4 - 0.0
31/07:30am 9.4 8.3 6.9 84 1.2 SSE 2 7 1 4 1020.3 - 0.0
31/07:00am 6.7 5.7 5.4 91 0.6 CALM 0 0 0 0 1020.1 - 0.0
31/06:30am 5.3 4.1 4.6 95 0.3 CALM 0 0 0 0 1019.9 - 0.0
31/06:00am 5.6 4.5 4.9 95 0.3 SE 0 0 0 0 1019.7 1019.7 0.0
31/05:30am 5.6 4.4 4.7 94 0.4 CALM 0 0 0 0 1019.5 - 0.0
31/05:00am 6.1 5.0 5.2 94 0.4 CALM 0 0 0 0 1019.3 - 0.0
31/04:30am 6.3 5.2 5.2 93 0.5 CALM 0 0 0 0 1019.1 - 0.0
31/04:00am 7.0 6.0 5.7 91 0.6 CALM 0 0 0 0 1018.9 - 0.0
31/03:30am 7.7 6.8 5.9 88 0.8 CALM 0 2 0 1 1018.9 - 0.0
31/03:00am 7.3 5.0 5.8 90 0.7 S 7 7 4 4 1018.9 1018.9 0.0
31/02:30am 7.4 6.5 6.1 91 0.6 CALM 0 0 0 0 1019.2 - 0.0
31/02:00am 7.7 6.3 5.7 87 0.9 S 2 7 1 4 1019.4 - 0.0
31/01:30am 8.4 5.8 6.2 86 1.0 S 9 11 5 6 1019.5 - 0.0
31/01:00am 8.3 7.5 6.6 89 0.8 CALM 0 0 0 0 1019.7 - 0.0
31/12:30am 9.3 6.9 7.0 85 1.1 SSW 9 9 5 5 1019.6 - 0.0
31/12:00am 9.2 6.7 6.6 84 1.2 S 9 9 5 5 1019.7 1019.7 0.0
 
Date/Time
EST
Temp
°C
App
Temp
°C
Dew
Point
Rel
Hum
%
Delta-T
°C
Wind Press
QNH
hPa
Press
MSL
hPa
Rain
since 9 am
mm
Dir
 
Spd
km/h
Gust
km/h
Spd
kts
Gust
kts
30/11:30pm 9.8 7.8 7.1 83 1.3 SE 7 9 4 5 1019.9 - 0.0
30/11:00pm 10.0 7.2 6.8 80 1.5 S 11 13 6 7 1019.9 - 0.0
30/10:30pm 10.2 7.4 6.8 79 1.6 S 11 11 6 6 1019.9 - 0.0
30/10:00pm 10.9 7.7 6.9 76 1.9 S 13 17 7 9 1020.0 - 0.0
30/09:30pm 11.5 8.3 6.9 73 2.2 S 13 15 7 8 1020.0 - 0.0
30/09:00pm 12.4 9.3 7.3 71 2.5 S 13 15 7 8 1020.1 1020.1 0.0
30/08:30pm 13.0 9.9 7.3 68 2.8 S 13 15 7 8 1020.2 - 0.0
30/08:00pm 13.1 9.9 6.9 66 3.0 S 13 13 7 7 1019.9 - 0.0
30/07:30pm 14.4 10.5 7.3 62 3.5 S 17 19 9 10 1019.9 - 0.0
30/07:00pm 15.7 11.5 7.3 57 4.2 S 19 20 10 11 1019.6 - 0.0
30/06:30pm 16.6 12.2 7.5 55 4.6 SSW 20 28 11 15 1019.2 - 0.0
30/06:00pm 17.5 13.1 7.5 52 5.1 SSW 20 28 11 15 1019.2 1019.2 0.0
30/05:30pm 18.9 13.7 7.4 47 5.9 SSW 24 32 13 17 1019.0 - 0.0
30/05:00pm 20.1 14.2 7.3 43 6.6 SSW 28 35 15 19 1018.8 - 0.0
30/04:30pm 21.0 16.1 6.8 39 7.3 SSW 22 30 12 16 1018.7 - 0.0
30/04:00pm 21.3 16.6 6.1 37 7.7 WSW 20 26 11 14 1018.7 - 0.0
30/03:30pm 20.8 17.6 5.3 36 7.7 SSW 11 19 6 10 1018.5 - 0.0
30/03:00pm 21.7 17.7 4.8 33 8.4 S 15 24 8 13 1018.7 1018.7 0.0
30/02:30pm 21.6 18.0 5.2 34 8.2 S 13 20 7 11 1018.9 - 0.0
30/02:00pm 21.2 16.2 4.8 34 8.1 S 20 28 11 15 1019.3 - 0.0
30/01:30pm 20.1 17.1 4.2 35 7.7 WSW 9 15 5 8 1019.6 - 0.0
30/01:00pm 20.3 17.3 4.2 34 7.8 S 9 11 5 6 1020.2 - 0.0
30/12:30pm 19.6 15.9 4.3 36 7.4 SSW 13 19 7 10 1020.7 - 0.0
30/12:00pm 19.3 15.1 3.8 36 7.4 SSW 15 24 8 13 1021.2 1021.3 0.0
30/11:30am 18.5 15.1 4.0 38 6.9 SW 11 28 6 15 1021.7 - 0.0
30/11:00am 17.2 13.7 3.5 40 6.4 SW 11 17 6 9 1022.4 - 0.0
30/10:30am 16.8 13.4 4.1 43 6.0 SSW 11 20 6 11 1022.8 - 0.0
30/10:00am 16.1 12.2 3.6 43 5.8 S 13 19 7 10 1023.0 - 0.0
30/09:30am 14.1 10.7 4.1 51 4.6 S 11 15 6 8 1023.3 - 0.0
30/09:00am 13.2 9.3 3.2 50 4.5 SSE 13 17 7 9 1023.3 1023.3 0.0
30/08:30am 11.4 8.2 4.9 64 3.0 S 11 13 6 7 1023.2 - 0.0
30/08:00am 8.5 5.2 4.4 75 1.8 S 11 15 6 8 1023.4 - 0.0
30/07:30am 6.5 3.4 3.4 80 1.3 SSW 9 11 5 6 1023.0 - 0.0
30/07:00am 4.4 2.8 2.4 87 0.8 CALM 0 4 0 2 1023.0 - 0.0
30/06:30am 3.7 -0.4 2.2 90 0.6 WNW 13 15 7 8 1022.6 - 0.0
30/06:00am 3.8 0.4 2.0 88 0.7 WNW 9 11 5 6 1022.5 1022.5 0.0
30/05:30am 3.6 1.5 1.8 88 0.7 SW 2 7 1 4 1022.3 - 0.0
30/05:00am 4.1 0.7 1.8 85 0.9 SW 9 9 5 5 1022.1 - 0.0
30/04:30am 4.4 1.0 1.9 84 1.0 SSW 9 11 5 6 1021.8 - 0.0
30/04:00am 5.3 2.0 2.4 81 1.2 SSW 9 9 5 5 1021.9 - 0.0
30/03:30am 5.0 1.5 1.5 78 1.4 S 9 9 5 5 1021.7 - 0.0
30/03:00am 4.9 1.5 1.7 80 1.3 SSW 9 11 5 6 1021.8 1021.9 0.0
30/02:30am 5.6 3.6 2.2 79 1.4 SW 2 9 1 5 1022.1 - 0.0
30/02:00am 5.6 2.2 1.9 77 1.5 SSW 9 9 5 5 1022.1 - 0.0
30/01:30am 5.0 0.8 1.8 80 1.3 SW 13 17 7 9 1022.3 - 0.0
30/01:00am 6.0 4.3 2.1 76 1.6 CALM 0 0 0 0 1022.5 - 0.0
30/12:30am 6.0 4.4 2.6 79 1.4 CALM 0 0 0 0 1022.7 - 0.0
30/12:00am 6.1 3.8 2.5 78 1.5 SSW 4 7 2 4 1022.8 1022.8 0.0
 
Date/Time
EST
Temp
°C
App
Temp
°C
Dew
Point
Rel
Hum
%
Delta-T
°C
Wind Press
QNH
hPa
Press
MSL
hPa
Rain
since 9 am
mm
Dir
 
Spd
km/h
Gust
km/h
Spd
kts
Gust
kts
29/11:30pm 7.4 4.1 2.4 70 2.1 SW 9 17 5 9 1022.9 - 0.0
29/11:00pm 7.8 6.2 2.3 68 2.3 CALM 0 0 0 0 1022.9 - 0.0
29/10:30pm 9.3 7.7 2.2 61 3.0 CALM 0 0 0 0 1023.1 - 0.0
29/10:00pm 13.1 9.3 1.8 46 4.9 SE 11 13 6 7 1023.2 - 0.0
29/09:30pm 12.3 8.9 1.9 49 4.5 SE 9 13 5 7 1023.4 - 0.0
29/09:00pm 11.3 7.7 2.9 56 3.7 SE 11 13 6 7 1023.3 1023.3 0.0
29/08:30pm 13.7 9.6 2.1 45 5.1 SSE 13 13 7 7 1023.3 - 0.0
29/08:00pm 11.3 7.6 2.3 54 3.9 SSE 11 13 6 7 1023.1 - 0.0
29/07:30pm 11.7 7.6 2.5 53 4.0 S 13 15 7 8 1023.0 - 0.0
29/07:00pm 12.8 8.4 2.6 50 4.5 S 15 17 8 9 1022.6 - 0.0
29/06:30pm 14.4 8.9 1.9 42 5.5 S 20 26 11 14 1022.5 - 0.0
29/06:00pm 15.3 9.5 2.1 41 5.9 S 22 28 12 15 1022.1 1022.2 0.0
29/05:30pm 16.6 9.2 1.9 37 6.6 S 30 37 16 20 1021.8 - 0.0
29/05:00pm 17.6 9.6 1.6 34 7.2 S 33 41 18 22 1021.5 - 0.0
29/04:30pm 18.2 9.8 1.7 33 7.5 S 35 44 19 24 1021.3 - 0.0
29/04:00pm 18.8 10.8 1.4 31 7.9 S 33 41 18 22 1021.3 - 0.0
29/03:30pm 19.1 10.9 0.2 28 8.4 SSW 33 41 18 22 1021.3 - 0.0
29/03:00pm 19.4 11.1 0.0 27 8.6 SSW 33 41 18 22 1021.4 1021.5 0.0
29/02:30pm 19.6 11.6 0.4 27 8.6 SSW 32 44 17 24 1021.5 - 0.0
29/02:13pm 19.9 12.6 -0.2 26 8.9 SSW 28 52 15 28 1021.6 - 0.0
29/02:00pm 19.8 13.7 0.7 28 8.6 S 22 37 12 20 1021.9 - 0.0
29/01:30pm 19.5 13.4 0.2 27 8.6 SSW 22 28 12 15 1022.3 - 0.0
29/01:00pm 19.3 13.2 -2.2 23 9.1 S 20 28 11 15 1022.7 - 0.0
29/12:30pm 19.2 13.8 -1.2 25 8.8 SSW 17 26 9 14 1023.1 - 0.0
29/12:00pm 18.3 12.9 -1.0 27 8.3 S 17 24 9 13 1023.9 1023.9 0.0
29/11:30am 18.6 12.8 -1.2 26 8.5 SSW 19 30 10 16 1024.5 - 0.0
29/11:00am 17.9 12.1 -1.5 26 8.3 SSE 19 26 10 14 1024.9 - 0.0
29/10:30am 17.7 11.2 0.0 30 7.8 SE 24 33 13 18 1025.3 - 0.0
29/10:00am 16.7 9.7 1.7 36 6.7 SE 28 35 15 19 1025.5 - 0.0
29/09:30am 15.5 9.0 2.7 42 5.8 SE 26 33 14 18 1025.8 - 0.0
29/09:00am 14.2 9.1 2.8 46 5.1 SE 19 26 10 14 1025.9 1026.0 0.0
29/08:30am 13.3 9.8 3.3 50 4.5 SSE 11 17 6 9 1026.0 - 0.0
29/08:00am 10.6 7.9 5.6 71 2.3 S 9 11 5 6 1025.8 - 0.0
29/07:30am 7.4 5.0 5.2 86 1.0 SSW 7 9 4 5 1025.5 - 0.0
29/07:00am 4.7 1.9 3.0 89 0.7 SSW 7 7 4 4 1025.2 - 0.0
29/06:30am 3.9 0.6 2.7 92 0.5 SSW 9 11 5 6 1024.9 - 0.0
29/06:20am 4.0 0.3 2.5 90 0.6 SSW 11 13 6 7 1024.7 - 0.0
29/06:00am 9.0 7.3 4.0 71 2.2 SSE 2 7 1 4 1024.5 1024.6 0.0
29/05:30am 8.0 4.9 3.6 74 1.9 SE 9 11 5 6 1024.2 - 0.0
29/05:00am 10.0 6.7 4.4 68 2.5 SE 11 11 6 6 1023.9 - 0.0
29/04:30am 5.8 3.3 4.6 92 0.5 S 7 9 4 5 1023.8 - 0.0
29/04:00am 5.6 4.4 4.7 94 0.4 CALM 0 0 0 0 1023.8 - 0.0
29/03:30am 6.4 3.6 5.0 91 0.6 S 9 9 5 5 1023.8 - 0.0
29/03:00am 6.3 3.8 4.9 91 0.6 S 7 9 4 5 1023.8 1023.8 0.0
29/02:30am 6.3 3.8 4.5 88 0.8 SSW 7 9 4 5 1023.9 - 0.0
29/02:00am 6.5 4.2 4.9 89 0.7 SSW 6 7 3 4 1024.0 - 0.0
29/01:30am 7.1 3.6 5.3 88 0.8 SSW 13 13 7 7 1024.1 - 0.0
29/01:00am 7.9 5.3 5.9 87 0.9 SSW 9 11 5 6 1024.0 - 0.0
29/12:30am 8.7 6.1 5.9 82 1.3 S 9 11 5 6 1023.9 - 0.0
29/12:00am 9.0 5.7 6.2 82 1.3 S 13 13 7 7 1023.8 1023.8 0.0
 
Date/Time
EST
Temp
°C
App
Temp
°C
Dew
Point
Rel
Hum
%
Delta-T
°C
Wind Press
QNH
hPa
Press
MSL
hPa
Rain
since 9 am
mm
Dir
 
Spd
km/h
Gust
km/h
Spd
kts
Gust
kts
28/11:30pm 9.8 7.3 6.6 80 1.5 S 9 11 5 6 1023.9 - 0.0
28/11:00pm 9.7 6.4 6.5 80 1.5 S 13 15 7 8 1023.8 - 0.0
28/10:30pm 10.3 6.7 6.9 79 1.6 S 15 19 8 10 1023.8 - 0.0
28/10:00pm 11.6 7.7 7.3 75 2.1 S 17 19 9 10 1023.9 - 0.0
28/09:30pm 11.6 8.1 7.3 75 2.1 S 15 17 8 9 1023.8 - 0.0
28/09:00pm 12.6 8.4 7.5 71 2.5 S 19 22 10 12 1023.6 1023.6 0.0
28/08:30pm 13.1 8.9 7.4 68 2.8 S 19 24 10 13 1023.3 - 0.0
28/08:00pm 13.8 9.6 7.3 65 3.2 S 19 24 10 13 1023.2 - 0.0
28/07:30pm 14.6 10.5 7.8 63 3.4 S 19 22 10 12 1022.9 - 0.0
28/07:00pm 15.3 10.6 7.7 60 3.8 S 22 28 12 15 1022.6 - 0.0
28/06:30pm 16.2 11.2 7.9 58 4.2 S 24 28 13 15 1022.1 - 0.0
28/06:00pm 17.4 12.3 7.5 52 5.0 S 24 30 13 16 1022.0 1022.1 0.0
28/05:30pm 18.8 12.9 7.7 48 5.7 S 28 35 15 19 1021.6 - 0.0
28/05:00pm 19.9 13.2 7.5 44 6.4 S 32 37 17 20 1021.1 - 0.0
28/04:30pm 20.5 14.3 7.8 44 6.6 S 30 37 16 20 1020.8 - 0.0

Other Formats:

Comma delimited format used in spreadsheet applications
http://www.bom.gov.au/fwo/IDN60801/IDN60801.95527.axf

JavaScript Object Notation format (JSON) in row-major order
http://www.bom.gov.au/fwo/IDN60801/IDN60801.95527.json